Time;durP1;ratioP1;P1;durP2;ratioP2;P2;SDS_P1;SDS_P2;PMS_P1;PMS_P2;Temp;Humidity;BMP_temperature;BMP_pressure;BME280_temperature;BME280_humidity;BME280_pressure;Samples;Min_cycle;Max_cycle;Signal;HPM_P1;HPM_P2
2022/03/10 00:02:24;;;;;;;73.13;34.35;;;;;;;3.13;82.04;101059.75;5037656;28;20028;-71
2022/03/10 00:04:50;;;;;;;67.38;33.00;;;;;;;3.03;82.25;101055.81;5043554;28;20028;-71
2022/03/10 00:07:15;;;;;;;62.45;31.05;;;;;;;3.06;82.21;101068.94;5044808;28;20087;-72
2022/03/10 00:09:41;;;;;;;54.88;28.20;;;;;;;3.10;82.96;101081.09;5038210;28;20043;-71
2022/03/10 00:12:06;;;;;;;48.60;27.02;;;;;;;3.08;83.19;101078.53;5036494;28;20041;-72
2022/03/10 00:14:32;;;;;;;49.72;27.30;;;;;;;3.09;83.14;101079.41;5039087;28;20033;-71
2022/03/10 00:16:58;;;;;;;52.60;27.58;;;;;;;3.05;83.42;101081.31;5036596;28;20473;-71
2022/03/10 00:19:24;;;;;;;48.30;26.48;;;;;;;3.05;83.36;101081.31;5046432;28;20397;-70
2022/03/10 00:21:49;;;;;;;44.80;25.88;;;;;;;3.11;83.87;101096.06;5042862;28;20021;-71
2022/03/10 00:24:16;;;;;;;45.80;25.67;;;;;;;3.13;83.86;101099.50;5042294;28;20037;-71
2022/03/10 00:26:45;;;;;;;45.25;24.73;;;;;;;3.13;83.84;101091.56;5051757;28;20028;-71
2022/03/10 00:29:11;;;;;;;42.53;24.67;;;;;;;3.16;83.97;101100.22;5041508;28;20453;-71
2022/03/10 00:31:36;;;;;;;48.70;24.38;;;;;;;3.14;84.21;101090.63;5046034;28;20112;-71
2022/03/10 00:34:02;;;;;;;40.97;24.02;;;;;;;3.21;84.46;101103.53;5039937;28;20037;-70
2022/03/10 00:36:28;;;;;;;39.00;23.08;;;;;;;3.24;84.15;101108.69;5048802;28;20029;-71
2022/03/10 00:38:54;;;;;;;38.55;22.63;;;;;;;3.27;84.02;101105.03;5043979;28;20025;-71
2022/03/10 00:41:19;;;;;;;40.70;23.50;;;;;;;3.30;83.70;101107.56;5038643;28;20478;-72
2022/03/10 00:43:46;;;;;;;42.10;21.13;;;;;;;3.31;83.49;101114.56;5040488;28;20033;-68
2022/03/10 00:46:11;;;;;;;38.33;22.52;;;;;;;3.31;83.46;101119.88;5022339;28;20620;-68
2022/03/10 00:48:37;;;;;;;42.30;23.13;;;;;;;3.30;83.47;101107.56;5023116;28;20258;-67
2022/03/10 00:51:03;;;;;;;45.42;24.80;;;;;;;3.29;83.15;101109.34;5026816;28;20043;-67
2022/03/10 00:53:29;;;;;;;40.90;22.75;;;;;;;3.30;83.28;101112.84;5028193;28;20064;-67
2022/03/10 00:55:55;;;;;;;42.55;23.98;;;;;;;3.31;83.29;101117.22;5024136;28;20061;-66
2022/03/10 00:58:20;;;;;;;41.60;23.33;;;;;;;3.31;83.76;101117.22;5039206;28;20029;-68
2022/03/10 01:00:46;;;;;;;38.10;23.17;;;;;;;3.29;83.30;101108.50;5023831;28;20379;-66
2022/03/10 01:03:11;;;;;;;58.65;28.90;;;;;;;3.29;83.48;101113.78;5023636;28;20032;-67
2022/03/10 01:05:37;;;;;;;62.53;29.42;;;;;;;3.31;83.64;101117.22;5025883;28;20482;-68
2022/03/10 01:08:02;;;;;;;66.40;31.08;;;;;;;3.33;84.27;101123.31;5029429;28;20028;-68
2022/03/10 01:10:28;;;;;;;54.58;27.77;;;;;;;3.26;83.76;101098.03;5028060;28;20079;-70
2022/03/10 01:12:53;;;;;;;42.53;23.15;;;;;;;3.30;84.29;101110.22;5040647;28;20179;-70
2022/03/10 01:15:22;;;;;;;45.60;23.35;;;;;;;3.29;84.21;101105.84;5042820;28;20151;-70
2022/03/10 01:17:48;;;;;;;45.72;23.42;;;;;;;3.29;84.24;101104.03;5042028;28;20091;-68
2022/03/10 01:20:14;;;;;;;46.63;24.67;;;;;;;3.30;84.94;101104.91;5024015;28;20053;-67
2022/03/10 01:22:40;;;;;;;42.05;23.77;;;;;;;3.34;84.15;101102.06;5024002;28;20013;-67
2022/03/10 01:25:07;;;;;;;41.55;23.15;;;;;;;3.34;84.14;101099.41;5028698;28;20104;-67
2022/03/10 01:27:33;;;;;;;38.97;22.48;;;;;;;3.35;84.16;101101.09;5033590;28;20032;-70
2022/03/10 01:29:59;;;;;;;38.70;22.60;;;;;;;3.39;84.53;101109.78;5040172;28;20034;-71
2022/03/10 01:32:25;;;;;;;41.22;22.02;;;;;;;3.34;84.39;101095.88;5045979;28;20033;-70
2022/03/10 01:34:51;;;;;;;42.10;22.25;;;;;;;3.42;84.45;101107.84;5040555;28;20107;-70
2022/03/10 01:37:17;;;;;;;38.15;21.77;;;;;;;3.45;84.51;101109.50;5034259;28;20061;-67
2022/03/10 01:39:42;;;;;;;36.53;21.10;;;;;;;3.46;84.53;101106.78;5024572;28;20442;-68
2022/03/10 01:42:08;;;;;;;35.20;19.48;;;;;;;3.49;84.86;101109.31;5021703;28;20029;-67
2022/03/10 01:44:34;;;;;;;29.20;19.40;;;;;;;3.51;85.45;101109.25;5031451;28;20151;-67
2022/03/10 01:47:01;;;;;;;28.95;18.48;;;;;;;3.58;86.02;101118.63;5022945;28;20504;-67
2022/03/10 01:49:27;;;;;;;29.70;18.30;;;;;;;3.64;86.54;101115.69;5021146;28;20053;-67
2022/03/10 01:51:52;;;;;;;27.55;17.15;;;;;;;3.63;86.74;101117.47;5026460;28;20040;-68
2022/03/10 01:54:18;;;;;;;25.42;16.85;;;;;;;3.57;86.41;101096.53;5025832;28;20395;-68
2022/03/10 01:56:43;;;;;;;25.42;17.25;;;;;;;3.72;86.20;101114.41;5024901;28;20087;-68
2022/03/10 01:59:09;;;;;;;27.83;15.48;;;;;;;3.73;85.83;101116.09;5022741;28;20040;-67
2022/03/10 02:01:35;;;;;;;23.90;14.75;;;;;;;3.73;85.10;101105.50;5021243;28;20113;-67
2022/03/10 02:04:00;;;;;;;22.20;13.57;;;;;;;3.80;85.10;101117.53;5031690;28;20112;-67
2022/03/10 02:06:26;;;;;;;21.88;13.90;;;;;;;3.83;84.13;101114.72;5026518;28;20112;-67
2022/03/10 02:11:37;;;;;;;19.98;12.00;;;;;;;3.80;82.77;101103.38;5023785;28;20848;-67
2022/03/10 02:17:19;;;;;;;19.77;11.57;;;;;;;3.85;81.31;101118.19;5029196;28;20083;-67
2022/03/10 02:19:32;;;;;;;18.23;10.93;;;;;;;3.86;80.18;101129.63;5032366;28;20440;-70
2022/03/10 02:22:10;;;;;;;18.38;12.20;;;;;;;3.85;79.83;101131.44;5031945;28;20022;-68
2022/03/10 02:24:39;;;;;;;16.88;11.23;;;;;;;3.81;78.91;101151.06;5025422;28;20440;-67
2022/03/10 02:27:19;;;;;;;17.52;10.93;;;;;;;3.82;79.01;101150.16;5021784;28;20032;-67
2022/03/10 02:29:47;;;;;;;18.02;10.55;;;;;;;3.75;78.71;101147.88;5028055;28;20021;-67
2022/03/10 02:32:14;;;;;;;17.02;10.80;;;;;;;3.77;78.56;101160.13;5025664;28;20041;-67
2022/03/10 02:34:40;;;;;;;15.80;9.32;;;;;;;3.79;78.22;101165.34;5029973;28;20124;-67
2022/03/10 02:37:06;;;;;;;16.98;11.20;;;;;;;3.79;77.29;101160.06;5020902;28;20049;-67
2022/03/10 02:39:32;;;;;;;16.85;10.32;;;;;;;3.80;77.36;101169.72;5025081;28;20083;-67
2022/03/10 02:41:58;;;;;;;16.13;10.55;;;;;;;3.80;76.59;101169.72;5028059;28;20030;-67
2022/03/10 02:44:24;;;;;;;17.30;10.05;;;;;;;3.79;76.70;101174.19;5025916;28;20028;-67
2022/03/10 02:46:50;;;;;;;17.10;11.07;;;;;;;3.73;76.58;101166.50;5027179;28;20551;-67
2022/03/10 02:49:15;;;;;;;17.73;11.35;;;;;;;3.77;75.92;101176.03;5023765;28;20528;-68
2022/03/10 02:51:41;;;;;;;16.63;10.93;;;;;;;3.74;75.94;101167.38;5021766;28;20409;-67
2022/03/10 02:54:07;;;;;;;18.20;11.32;;;;;;;3.75;75.72;101163.78;5027007;28;20436;-68
2022/03/10 02:56:32;;;;;;;17.40;11.95;;;;;;;3.71;75.54;101176.31;5023239;28;20026;-68
2022/03/10 02:58:58;;;;;;;19.88;11.68;;;;;;;3.69;74.84;101170.25;5030448;28;20068;-68
2022/03/10 03:01:23;;;;;;;16.73;11.02;;;;;;;3.73;74.95;101185.06;5020972;28;20032;-67
2022/03/10 03:03:48;;;;;;;17.58;11.18;;;;;;;3.69;75.06;101186.16;5022670;28;20491;-68
2022/03/10 03:06:14;;;;;;;16.30;10.48;;;;;;;3.65;74.99;101191.66;5027808;28;20382;-67
2022/03/10 03:08:39;;;;;;;14.48;9.60;;;;;;;3.56;75.20;101192.06;5024040;28;20083;-68
2022/03/10 03:11:05;;;;;;;17.90;11.37;;;;;;;3.58;75.50;101206.13;5026834;28;20338;-67
2022/03/10 03:13:30;;;;;;;15.50;10.20;;;;;;;3.56;75.44;101210.66;5028794;28;20033;-68
2022/03/10 03:15:56;;;;;;;17.55;11.70;;;;;;;3.54;75.38;101208.06;5024570;28;20517;-67
2022/03/10 03:18:21;;;;;;;19.10;11.48;;;;;;;3.49;75.85;101210.06;5023644;28;20025;-68
2022/03/10 03:20:47;;;;;;;17.92;10.65;;;;;;;3.53;75.70;101214.31;5019319;28;20083;-68
2022/03/10 03:23:12;;;;;;;16.52;10.73;;;;;;;3.48;75.25;101207.50;5026135;28;20049;-67
2022/03/10 03:25:38;;;;;;;20.30;11.57;;;;;;;3.43;74.44;101218.28;5019875;28;20414;-67
2022/03/10 03:28:04;;;;;;;15.20;10.10;;;;;;;3.36;73.82;101205.38;5022847;28;20037;-67
2022/03/10 03:30:29;;;;;;;17.75;10.70;;;;;;;3.38;73.81;101212.31;5017438;28;20509;-67
2022/03/10 03:32:55;;;;;;;16.63;10.00;;;;;;;3.31;73.03;101204.69;5024489;28;20031;-70
2022/03/10 03:35:20;;;;;;;15.60;9.77;;;;;;;3.38;72.17;101219.41;5038193;28;20025;-70
2022/03/10 03:37:46;;;;;;;17.00;10.63;;;;;;;3.33;71.64;101227.59;5037175;28;20075;-70
2022/03/10 03:40:12;;;;;;;16.33;9.65;;;;;;;3.24;70.86;101222.69;5035309;28;20087;-70
2022/03/10 03:42:37;;;;;;;16.23;9.93;;;;;;;3.25;70.55;101239.41;5035809;28;20033;-70
2022/03/10 03:45:04;;;;;;;14.55;9.07;;;;;;;3.24;70.46;101240.34;5036582;28;20025;-70
2022/03/10 03:47:30;;;;;;;12.95;9.10;;;;;;;3.15;70.31;101241.63;5044101;28;20033;-70
2022/03/10 03:49:56;;;;;;;15.27;9.05;;;;;;;3.14;69.46;101241.69;5038968;28;20045;-70
2022/03/10 03:52:21;;;;;;;14.77;8.98;;;;;;;3.12;69.70;101265.59;5044354;28;20024;-70
2022/03/10 03:54:46;;;;;;;13.10;7.43;;;;;;;3.10;69.16;101261.31;5036096;28;20040;-70
2022/03/10 03:57:12;;;;;;;17.20;8.85;;;;;;;3.10;68.39;101238.31;5038380;28;20029;-70
2022/03/10 03:59:37;;;;;;;15.88;8.60;;;;;;;3.08;67.40;101253.41;5042334;28;20044;-70
2022/03/10 04:02:03;;;;;;;12.73;8.10;;;;;;;3.10;67.43;101253.34;5045350;28;20025;-70
2022/03/10 04:04:29;;;;;;;12.73;8.15;;;;;;;3.11;66.65;101260.38;5039366;28;20509;-70
2022/03/10 04:06:55;;;;;;;13.30;8.05;;;;;;;3.07;65.60;101259.66;5035911;28;20390;-70
2022/03/10 04:09:20;;;;;;;10.80;6.85;;;;;;;3.05;65.07;101268.56;5044597;28;20029;-70
2022/03/10 04:11:46;;;;;;;12.82;7.28;;;;;;;2.99;63.26;101276.75;5043314;28;20028;-70
2022/03/10 04:14:12;;;;;;;15.07;7.45;;;;;;;2.97;62.72;101268.88;5043262;28;20120;-70
2022/03/10 04:16:38;;;;;;;10.32;6.60;;;;;;;2.93;62.72;101275.25;5038011;28;20029;-67
2022/03/10 04:19:05;;;;;;;10.68;5.18;;;;;;;2.91;61.69;101270.94;5034171;28;20041;-67
2022/03/10 04:21:31;;;;;;;10.93;6.63;;;;;;;2.87;60.43;101280.78;5051278;28;20052;-67
2022/03/10 04:23:56;;;;;;;11.30;6.93;;;;;;;2.84;60.71;101282.72;5032046;28;20146;-67
2022/03/10 04:26:22;;;;;;;12.68;6.80;;;;;;;2.74;60.76;101276.91;5028913;28;20040;-67
2022/03/10 04:28:47;;;;;;;12.90;7.03;;;;;;;2.73;61.20;101288.44;5025427;28;20032;-68
2022/03/10 04:31:13;;;;;;;12.20;7.38;;;;;;;2.66;61.77;101272.84;5023610;28;20063;-67
2022/03/10 04:33:39;;;;;;;11.90;6.75;;;;;;;2.74;61.24;101294.63;5026976;28;20091;-67
2022/03/10 04:36:04;;;;;;;11.52;6.63;;;;;;;2.75;61.21;101301.63;5028193;28;20654;-67
2022/03/10 04:38:30;;;;;;;11.77;6.68;;;;;;;2.77;60.95;101305.94;5026681;28;20071;-68
2022/03/10 04:40:55;;;;;;;13.20;7.07;;;;;;;2.72;60.81;101307.91;5027683;28;20021;-67
2022/03/10 04:43:20;;;;;;;9.60;6.50;;;;;;;2.73;60.60;101324.66;5026464;28;20025;-67
2022/03/10 04:45:46;;;;;;;9.18;6.13;;;;;;;2.63;59.80;101312.69;5028097;28;20032;-68
2022/03/10 04:48:12;;;;;;;11.95;6.47;;;;;;;2.59;59.40;101322.56;5028771;28;20088;-68
2022/03/10 04:50:37;;;;;;;12.38;6.28;;;;;;;2.59;58.63;101327.00;5031979;28;20068;-68
2022/03/10 04:53:03;;;;;;;12.18;5.40;;;;;;;2.57;57.96;101334.16;5026382;28;20029;-68
2022/03/10 04:55:29;;;;;;;9.00;5.93;;;;;;;2.54;57.49;101331.63;5026383;28;20040;-66
2022/03/10 04:57:54;;;;;;;12.23;6.63;;;;;;;2.45;57.67;101330.16;5026648;28;20470;-68
2022/03/10 05:00:19;;;;;;;12.88;5.72;;;;;;;2.46;57.32;101331.91;5025664;28;21547;-67
2022/03/10 05:02:49;;;;;;;9.50;6.05;;;;;;;2.42;56.74;101339.09;5025876;28;20031;-68
2022/03/10 05:05:14;;;;;;;18.17;5.93;;;;;;;2.43;56.54;101353.22;5024213;28;20993;-68
2022/03/10 05:07:43;;;;;;;11.95;6.30;;;;;;;2.40;56.54;101345.38;5036129;28;20027;-68
2022/03/10 05:10:10;;;;;;;10.07;6.05;;;;;;;2.38;55.92;101356.03;5025929;28;20017;-68
2022/03/10 05:12:52;;;;;;;10.02;5.75;;;;;;;2.27;55.75;101346.75;5029909;28;20032;-66
2022/03/10 05:15:23;;;;;;;12.90;5.45;;;;;;;2.34;55.35;101387.97;5033844;28;20037;-68
2022/03/10 05:17:49;;;;;;;15.40;6.50;;;;;;;2.25;55.79;101369.75;5036536;28;20374;-67
2022/03/10 05:20:15;;;;;;;20.65;7.65;;;;;;;2.27;55.77;101379.41;5025384;28;20041;-68
2022/03/10 05:22:42;;;;;;;14.07;6.57;;;;;;;2.21;55.76;101384.03;5024171;28;20037;-68
2022/03/10 05:25:08;;;;;;;12.80;7.00;;;;;;;2.14;55.98;101383.41;5024378;28;20026;-68
2022/03/10 05:27:33;;;;;;;15.00;5.90;;;;;;;2.13;56.15;101386.97;5025468;28;20030;-67
2022/03/10 05:29:58;;;;;;;17.52;7.10;;;;;;;2.11;55.22;101396.75;5030801;28;20432;-68
2022/03/10 05:32:24;;;;;;;11.85;6.32;;;;;;;2.04;55.69;101382.00;5022633;28;20868;-67
2022/03/10 05:34:49;;;;;;;12.65;6.22;;;;;;;2.08;55.16;101396.88;5033114;28;20033;-67
2022/03/10 05:37:15;;;;;;;16.60;6.60;;;;;;;2.07;54.94;101392.47;5022643;28;20025;-66
2022/03/10 05:39:40;;;;;;;11.52;5.32;;;;;;;2.03;53.79;101393.50;5029924;28;20041;-67
2022/03/10 05:42:06;;;;;;;13.43;7.30;;;;;;;2.03;53.34;101390.84;5023790;28;20021;-68
2022/03/10 05:44:31;;;;;;;15.27;6.03;;;;;;;2.02;53.18;101380.31;5023300;28;20758;-67
2022/03/10 05:46:56;;;;;;;13.98;5.95;;;;;;;1.98;52.75;101392.81;5018295;28;20040;-68
2022/03/10 05:49:22;;;;;;;14.70;6.10;;;;;;;1.94;51.45;101390.34;5020311;28;20053;-67
2022/03/10 05:51:47;;;;;;;44.40;6.55;;;;;;;1.93;50.62;101413.25;5031536;28;20028;-67
2022/03/10 05:54:13;;;;;;;24.13;6.40;;;;;;;1.95;50.58;101414.09;5028332;28;20385;-70
2022/03/10 05:56:38;;;;;;;14.95;6.50;;;;;;;1.89;50.85;101424.88;5032730;28;20036;-70
2022/03/10 05:59:04;;;;;;;26.98;6.85;;;;;;;1.87;51.17;101429.34;5041587;28;20031;-70
2022/03/10 06:01:29;;;;;;;24.17;7.47;;;;;;;1.84;51.04;101421.50;5039979;28;20031;-70
2022/03/10 06:03:55;;;;;;;15.95;6.68;;;;;;;1.84;50.92;101413.59;5040860;28;20032;-70
2022/03/10 06:06:20;;;;;;;14.95;6.90;;;;;;;1.82;50.85;101423.38;5033798;28;20041;-71
2022/03/10 06:08:45;;;;;;;14.38;7.03;;;;;;;1.72;50.63;101419.31;5036097;28;20076;-71
2022/03/10 06:11:12;;;;;;;19.58;6.15;;;;;;;1.78;50.42;101440.22;5035556;28;20056;-71
2022/03/10 06:13:38;;;;;;;21.73;6.80;;;;;;;1.76;51.24;101446.50;5043173;28;20037;-70
2022/03/10 06:16:04;;;;;;;21.17;6.75;;;;;;;1.77;50.62;101449.09;5033704;28;20071;-71
2022/03/10 06:18:29;;;;;;;30.48;7.13;;;;;;;1.77;50.88;101446.44;5034062;28;20029;-70
2022/03/10 06:20:55;;;;;;;22.50;7.13;;;;;;;1.80;50.81;101443.69;5036825;28;20490;-71
2022/03/10 06:23:20;;;;;;;28.15;7.30;;;;;;;1.81;50.64;101453.34;5045895;28;20074;-70
2022/03/10 06:25:46;;;;;;;21.90;6.50;;;;;;;1.77;50.24;101435.88;5042810;28;20025;-71
2022/03/10 06:28:11;;;;;;;12.18;5.95;;;;;;;1.85;50.89;101455.00;5043091;28;20712;-70
2022/03/10 06:30:37;;;;;;;21.33;6.45;;;;;;;1.76;50.04;101454.44;5032581;28;20413;-70
2022/03/10 06:33:02;;;;;;;28.02;7.15;;;;;;;1.90;49.45;101462.75;5036250;28;20025;-70
2022/03/10 06:35:29;;;;;;;16.65;6.88;;;;;;;1.88;50.26;101456.66;5035013;28;20029;-70
2022/03/10 06:37:54;;;;;;;26.95;7.53;;;;;;;2.00;49.75;101470.31;5028259;28;20127;-71
2022/03/10 06:40:19;;;;;;;25.35;7.55;;;;;;;1.97;49.33;101470.44;5044221;28;20021;-70
2022/03/10 06:42:45;;;;;;;23.90;7.75;;;;;;;2.10;49.45;101474.38;5033780;28;20021;-70
2022/03/10 06:45:10;;;;;;;18.30;7.72;;;;;;;2.19;49.09;101484.66;5032664;28;20053;-70
2022/03/10 06:47:36;;;;;;;29.42;7.72;;;;;;;2.24;48.52;101477.44;5042936;28;20029;-71
2022/03/10 06:50:02;;;;;;;42.72;6.75;;;;;;;2.33;47.34;101490.31;5029087;28;21719;-70
2022/03/10 06:52:31;;;;;;;24.50;7.57;;;;;;;2.34;47.29;101464.72;5033334;28;20342;-70
2022/03/10 06:54:57;;;;;;;24.95;6.93;;;;;;;2.35;47.86;101459.38;5036774;28;20029;-69
2022/03/10 06:57:22;;;;;;;30.80;7.80;;;;;;;2.55;47.37;101495.72;5039561;28;20028;-70
2022/03/10 06:59:47;;;;;;;28.45;6.65;;;;;;;2.62;46.48;101502.53;5039201;28;20537;-70
2022/03/10 07:02:15;;;;;;;38.28;7.93;;;;;;;2.67;46.59;101487.31;5038697;28;20040;-70
2022/03/10 07:04:40;;;;;;;26.98;6.40;;;;;;;2.73;46.50;101492.38;5039259;28;20033;-71
2022/03/10 07:07:06;;;;;;;44.17;7.38;;;;;;;2.87;46.63;101500.66;5039527;28;20029;-70
2022/03/10 07:09:31;;;;;;;48.55;8.75;;;;;;;2.94;45.58;101519.88;5043959;28;20083;-70
2022/03/10 07:11:58;;;;;;;27.92;6.63;;;;;;;3.01;46.00;101505.47;5042100;28;20034;-70
2022/03/10 07:14:24;;;;;;;48.88;8.73;;;;;;;3.14;46.27;101504.94;5043254;28;20087;-70
2022/03/10 07:16:49;;;;;;;33.28;7.43;;;;;;;3.26;45.98;101507.09;5038181;28;20025;-69
2022/03/10 07:19:15;;;;;;;20.17;6.85;;;;;;;3.36;45.68;101489.06;5041889;28;20029;-70
2022/03/10 07:21:41;;;;;;;34.45;7.40;;;;;;;3.43;44.86;101485.22;5039406;28;20477;-70
2022/03/10 07:24:07;;;;;;;24.42;6.57;;;;;;;3.61;44.29;101503.91;5045614;28;20029;-70
2022/03/10 07:26:33;;;;;;;41.35;7.05;;;;;;;3.74;43.77;101510.44;5047400;28;20071;-71
2022/03/10 07:29:01;;;;;;;17.42;7.13;;;;;;;3.90;43.41;101503.59;5039848;28;20029;-71
2022/03/10 07:31:28;;;;;;;38.10;7.43;;;;;;;4.10;43.14;101519.53;5047386;28;20480;-71
2022/03/10 07:33:53;;;;;;;23.88;6.10;;;;;;;4.34;42.49;101512.31;5046565;28;20048;-71
2022/03/10 07:36:19;;;;;;;37.15;7.78;;;;;;;4.46;42.37;101509.13;5041716;28;20037;-71
2022/03/10 07:38:44;;;;;;;56.55;7.85;;;;;;;4.64;41.13;101511.84;5038275;28;20083;-71
2022/03/10 07:41:10;;;;;;;45.75;8.30;;;;;;;4.77;40.52;101501.50;5047878;28;20022;-71
2022/03/10 07:43:35;;;;;;;33.92;9.25;;;;;;;4.95;40.87;101511.31;5041057;28;20018;-70
2022/03/10 07:46:04;;;;;;;27.27;7.35;;;;;;;5.18;40.17;101502.25;5040136;28;20059;-70
2022/03/10 07:48:30;;;;;;;26.63;7.28;;;;;;;5.46;39.66;101484.06;5042395;28;20060;-71
2022/03/10 07:50:55;;;;;;;28.95;7.97;;;;;;;6.00;39.08;101500.03;5035836;28;20116;-67
2022/03/10 07:53:21;;;;;;;21.85;6.93;;;;;;;6.81;37.72;101495.72;5026211;28;20033;-67
2022/03/10 07:55:47;;;;;;;43.33;9.07;;;;;;;7.50;36.12;101502.50;5041532;28;20025;-67
2022/03/10 07:58:12;;;;;;;47.97;8.93;;;;;;;8.31;35.59;101491.50;5031370;28;20105;-68
2022/03/10 08:00:38;;;;;;;24.13;8.30;;;;;;;8.85;33.98;101493.50;5026958;28;20531;-67
2022/03/10 08:03:03;;;;;;;25.15;6.85;;;;;;;9.76;33.40;101500.06;5023215;28;20060;-66
2022/03/10 08:05:29;;;;;;;32.10;8.02;;;;;;;10.50;31.99;101489.66;5025703;28;20042;-67
2022/03/10 08:07:55;;;;;;;24.25;7.05;;;;;;;11.00;30.71;101514.69;5038595;28;20557;-67
2022/03/10 08:10:20;;;;;;;12.57;6.72;;;;;;;11.23;30.33;101488.91;5026182;28;20118;-67
2022/03/10 08:12:46;;;;;;;16.40;7.63;;;;;;;11.79;30.24;101504.47;5023209;28;20116;-67
2022/03/10 08:15:11;;;;;;;17.33;6.82;;;;;;;12.14;29.55;101500.00;5042005;28;20064;-67
2022/03/10 08:17:37;;;;;;;28.85;8.27;;;;;;;12.05;29.32;101510.56;5034668;28;20125;-67
2022/03/10 08:20:03;;;;;;;20.55;7.35;;;;;;;11.87;29.57;101502.06;5030536;28;20032;-66
2022/03/10 08:22:29;;;;;;;24.83;7.18;;;;;;;12.18;28.83;101511.38;5027763;28;20533;-66
2022/03/10 08:24:54;;;;;;;21.92;7.50;;;;;;;12.21;28.85;101498.56;5026461;28;20249;-67
2022/03/10 08:27:20;;;;;;;16.00;7.15;;;;;;;12.70;28.50;101509.09;5040617;28;20032;-66
2022/03/10 08:29:45;;;;;;;23.42;7.63;;;;;;;13.04;27.76;101498.28;5030654;28;20075;-67
2022/03/10 08:32:12;;;;;;;40.17;8.38;;;;;;;12.97;27.59;101507.78;5048758;28;20108;-67
2022/03/10 08:34:38;;;;;;;26.13;6.85;;;;;;;13.17;26.94;101499.03;5028939;28;20036;-67
2022/03/10 08:37:04;;;;;;;23.17;7.47;;;;;;;13.44;27.24;101498.63;5026094;28;20025;-67
2022/03/10 08:39:30;;;;;;;20.90;7.40;;;;;;;12.54;27.67;101503.19;5041119;28;20064;-67
2022/03/10 08:41:56;;;;;;;23.45;6.70;;;;;;;11.44;28.86;101498.09;5029020;28;20509;-67
2022/03/10 08:44:22;;;;;;;20.02;7.18;;;;;;;10.74;29.67;101517.50;5027337;28;20026;-66
2022/03/10 08:46:47;;;;;;;14.43;6.82;;;;;;;9.82;30.77;101513.06;5020705;28;20033;-68
2022/03/10 08:49:14;;;;;;;19.10;6.45;;;;;;;9.03;31.50;101524.50;5036211;28;20080;-67
2022/03/10 08:51:40;;;;;;;21.73;7.22;;;;;;;8.27;31.67;101517.59;5023186;28;20072;-67
2022/03/10 08:54:06;;;;;;;20.67;7.30;;;;;;;8.08;32.86;101516.03;5026085;28;20494;-67
2022/03/10 08:56:31;;;;;;;17.55;6.50;;;;;;;7.74;32.96;101522.47;5027742;28;20034;-67
2022/03/10 08:58:57;;;;;;;17.80;7.25;;;;;;;8.28;33.14;101521.09;5025689;28;20033;-68
2022/03/10 09:01:22;;;;;;;18.70;7.18;;;;;;;9.93;30.86;101521.25;5022417;28;20049;-67
2022/03/10 09:03:48;;;;;;;14.45;6.43;;;;;;;11.42;28.95;101502.72;5030150;28;20441;-67
2022/03/10 09:06:14;;;;;;;20.70;7.63;;;;;;;12.82;27.16;101513.53;5027893;28;20033;-67
2022/03/10 09:08:40;;;;;;;35.58;7.90;;;;;;;14.05;25.49;101511.50;5028476;28;20029;-66
2022/03/10 09:11:06;;;;;;;19.67;7.13;;;;;;;15.43;24.34;101509.34;5026257;28;20107;-66
2022/03/10 09:13:32;;;;;;;27.98;7.03;;;;;;;16.10;23.30;101480.59;5024564;28;20038;-67
2022/03/10 09:15:57;;;;;;;19.33;7.05;;;;;;;16.97;22.64;101493.94;5023606;28;20458;-66
2022/03/10 09:18:23;;;;;;;11.57;7.18;;;;;;;17.76;21.30;101476.16;5023339;28;20040;-67
2022/03/10 09:20:48;;;;;;;15.07;6.35;;;;;;;18.66;21.39;101496.75;5049365;28;20021;-67
2022/03/10 09:23:14;;;;;;;20.85;6.80;;;;;;;19.27;20.58;101494.81;5026797;28;20033;-67
2022/03/10 09:25:39;;;;;;;19.40;6.63;;;;;;;19.75;19.94;101503.19;5043713;28;20037;-67
2022/03/10 09:28:05;;;;;;;14.20;6.28;;;;;;;20.02;19.82;101472.97;5024487;28;20025;-67
2022/03/10 09:30:31;;;;;;;44.08;7.55;;;;;;;20.60;19.24;101485.66;5029200;28;20029;-67
2022/03/10 09:32:57;;;;;;;19.33;6.72;;;;;;;20.49;18.93;101491.44;5027910;28;20374;-67
2022/03/10 09:35:23;;;;;;;17.48;6.30;;;;;;;20.87;18.99;101485.28;5025942;28;20029;-67
2022/03/10 09:37:49;;;;;;;19.60;6.57;;;;;;;21.27;18.72;101483.34;5026700;28;20049;-66
2022/03/10 09:40:14;;;;;;;22.15;6.72;;;;;;;20.98;18.69;101498.59;5025733;28;20031;-67
2022/03/10 09:42:42;;;;;;;16.77;6.63;;;;;;;21.21;18.56;101480.47;5018059;28;20033;-67
2022/03/10 09:45:10;;;;;;;31.58;7.28;;;;;;;20.99;18.36;101484.78;5026398;28;20032;-67
2022/03/10 09:47:42;;;;;;;25.13;6.95;;;;;;;21.11;18.31;101490.72;5022418;28;20025;-66
2022/03/10 09:50:13;;;;;;;18.42;6.70;;;;;;;20.60;18.37;101491.94;5048516;28;20059;-67
2022/03/10 09:52:41;;;;;;;10.93;6.28;;;;;;;20.39;18.38;101488.88;5023859;28;20153;-67
2022/03/10 09:55:08;;;;;;;11.45;6.32;;;;;;;20.10;18.90;101481.16;5025926;28;20032;-71
2022/03/10 09:57:38;;;;;;;15.23;7.05;;;;;;;20.41;18.78;101486.81;5038410;28;20029;-72
2022/03/10 10:00:04;;;;;;;13.45;7.28;;;;;;;20.11;19.00;101482.00;5045738;28;20029;-71
2022/03/10 10:02:30;;;;;;;17.15;6.63;;;;;;;20.76;18.47;101480.19;5041856;28;20029;-71
2022/03/10 10:04:56;;;;;;;13.38;6.22;;;;;;;21.01;18.13;101484.59;5041382;28;20659;-71
2022/03/10 10:07:26;;;;;;;19.20;6.50;;;;;;;20.96;18.23;101493.31;5034232;28;20111;-71
2022/03/10 10:09:54;;;;;;;18.98;7.40;;;;;;;20.47;17.70;101494.34;5039894;28;20049;-66
2022/03/10 10:12:27;;;;;;;20.40;6.22;;;;;;;20.44;17.86;101505.56;5048679;28;20036;-66
2022/03/10 10:14:54;;;;;;;10.40;6.20;;;;;;;21.02;18.05;101494.50;5023090;28;20040;-66
2022/03/10 10:17:31;;;;;;;9.07;6.13;;;;;;;20.64;17.91;101500.66;5023084;28;20718;-66
2022/03/10 10:19:59;;;;;;;10.75;6.57;;;;;;;20.77;18.04;101509.16;5023814;28;20485;-67
2022/03/10 10:22:26;;;;;;;11.63;6.88;;;;;;;21.11;17.64;101490.72;5024603;28;20041;-66
2022/03/10 10:24:59;;;;;;;13.18;6.28;;;;;;;20.97;17.76;101507.81;5025791;28;20037;-66
2022/03/10 10:27:32;;;;;;;11.77;6.18;;;;;;;20.99;17.56;101509.34;5023715;28;20061;-66
2022/03/10 10:30:00;;;;;;;11.07;5.93;;;;;;;20.65;17.62;101503.22;5028409;28;20037;-67
2022/03/10 10:32:34;;;;;;;12.43;6.05;;;;;;;20.83;17.75;101498.41;5022553;28;20018;-68
2022/03/10 10:35:10;;;;;;;16.55;5.85;;;;;;;20.23;18.14;101505.22;5034401;28;20482;-67
2022/03/10 10:37:37;;;;;;;13.02;6.30;;;;;;;19.27;18.63;101522.03;5023446;28;20033;-67
2022/03/10 10:40:05;;;;;;;11.73;5.53;;;;;;;17.08;20.20;101512.72;5028040;28;20040;-66
2022/03/10 10:42:33;;;;;;;14.10;6.72;;;;;;;16.12;21.46;101515.63;5044028;28;20140;-66
2022/03/10 10:45:00;;;;;;;16.33;6.22;;;;;;;15.02;22.36;101512.97;5029768;28;20026;-68
2022/03/10 10:47:29;;;;;;;16.60;5.95;;;;;;;14.05;23.94;101522.28;5047630;28;20036;-66
2022/03/10 10:50:04;;;;;;;12.38;5.55;;;;;;;12.93;24.09;101527.84;5028139;28;20108;-66
2022/03/10 10:52:41;;;;;;;10.88;6.15;;;;;;;12.28;25.18;101523.19;5019922;28;20076;-67
2022/03/10 10:55:13;;;;;;;9.93;5.32;;;;;;;11.53;26.25;101535.03;5042976;28;20021;-66
2022/03/10 10:57:39;;;;;;;19.50;6.78;;;;;;;11.05;27.55;101549.28;5030993;28;20037;-66
2022/03/10 11:00:09;;;;;;;11.73;5.85;;;;;;;10.40;27.61;101551.16;5030820;28;20030;-66
2022/03/10 11:02:45;;;;;;;22.35;7.20;;;;;;;9.99;28.05;101533.41;5028591;28;20051;-66
2022/03/10 11:05:14;;;;;;;12.23;5.97;;;;;;;9.72;28.26;101533.38;5028334;28;20045;-66
2022/03/10 11:07:40;;;;;;;10.90;6.00;;;;;;;9.38;28.62;101543.69;5031737;28;20033;-66
2022/03/10 11:10:11;;;;;;;10.77;5.68;;;;;;;9.12;28.79;101542.63;5043936;28;20048;-66
2022/03/10 11:12:39;;;;;;;9.77;5.82;;;;;;;8.94;28.69;101557.16;5029101;28;20482;-66
2022/03/10 11:15:07;;;;;;;17.65;6.32;;;;;;;8.56;28.00;101566.63;5044102;28;20026;-66
2022/03/10 11:17:33;;;;;;;13.27;6.53;;;;;;;8.33;28.26;101569.81;5036023;28;20036;-66
2022/03/10 11:20:01;;;;;;;10.45;5.03;;;;;;;8.08;28.93;101561.47;5031272;28;20025;-67
2022/03/10 11:22:48;;;;;;;13.65;6.10;;;;;;;7.90;30.09;101551.84;5033682;28;20715;-67
2022/03/10 11:25:22;;;;;;;22.55;7.07;;;;;;;7.81;30.28;101555.03;5030311;28;21746;-66